Time;durP1;ratioP1;P1;durP2;ratioP2;P2;SDS_P1;SDS_P2;PMS_P1;PMS_P2;Temp;Humidity;BMP_temperature;BMP_pressure;BME280_temperature;BME280_humidity;BME280_pressure;Samples;Min_cycle;Max_cycle;Signal;HPM_P1;HPM_P2
2024/02/11 00:00:53;;;;;;;;;;;;;;;6.90;100.00;96870.53;4992499;28;19918;-88
2024/02/11 00:03:27;;;;;;;;;;;;;;;6.87;100.00;96873.41;4995292;28;19976;-80
2024/02/11 00:05:52;;;;;;;;;;;;;;;6.93;100.00;96875.59;4995244;28;20377;-84
2024/02/11 00:08:19;;;;;;;;;;;;;;;6.68;100.00;96881.81;4993944;28;19925;-82
2024/02/11 00:10:49;;;;;;;;;;;;;;;5.93;100.00;96878.31;4993137;28;19925;-93
2024/02/11 00:13:14;;;;;;;;;;;;;;;5.66;100.00;96877.63;4993350;28;19926;-84
2024/02/11 00:15:40;;;;;;;;;;;;;;;5.54;100.00;96864.41;4994911;28;19980;-83
2024/02/11 00:18:06;;;;;;;;;;;;;;;5.27;100.00;96870.59;4995047;28;20064;-86
2024/02/11 00:20:31;;;;;;;;;;;;;;;5.23;100.00;96874.38;4993470;28;20012;-82
2024/02/11 00:22:56;;;;;;;;;;;;;;;5.16;100.00;96865.22;4993479;28;19918;-81
2024/02/11 00:25:22;;;;;;;;;;;;;;;5.01;100.00;96884.59;4992230;28;19924;-82
2024/02/11 00:27:52;;;;;;;;;;;;;;;4.98;100.00;96879.56;4994847;28;19922;-84
2024/02/11 08:05:47;;;;;;;;;;;;;;;4.19;100.00;97265.53;5391606;23;19932;-82
2024/02/11 08:08:12;;;;;;;;;;;;;;;4.24;100.00;97272.28;5005231;28;19921;-79
2024/02/11 08:10:38;;;;;;;;;;;;;;;4.21;100.00;97272.47;5004646;28;19960;-82
2024/02/11 08:13:03;;;;;;;;;;;;;;;4.25;100.00;97264.34;5004785;28;20001;-81
2024/02/11 08:15:28;;;;;;;;;;;;;;;4.24;100.00;97262.63;5004895;28;19917;-80
2024/02/11 08:17:54;;;;;;;;;;;;;;;4.22;100.00;97268.91;5005221;28;20769;-79
2024/02/11 08:20:19;;;;;;;;;;;;;;;4.25;100.00;97282.69;5002607;28;19960;-80
2024/02/11 08:22:47;;;;;;;;;;;;;;;4.28;100.00;97276.44;4986828;28;20376;-80
2024/02/11 08:25:12;;;;;;;;;;;;;;;4.35;100.00;97280.38;5004583;28;19928;-81
2024/02/11 08:27:38;;;;;;;;;;;;;;;4.31;100.00;97284.13;4987052;28;19917;-83
2024/02/11 08:30:04;;;;;;;;;;;;;;;4.30;100.00;97287.69;5004762;28;19967;-83
2024/02/11 08:32:29;;;;;;;;;;;;;;;4.35;100.00;97290.88;5004342;28;20000;-82
2024/02/11 08:34:54;;;;;;;;;;;;;;;4.35;100.00;97296.94;5002849;28;19922;-81
2024/02/11 08:37:20;;;;;;;;;;;;;;;4.37;100.00;97296.88;5004568;28;19924;-85
2024/02/11 08:39:46;;;;;;;;;;;;;;;4.35;100.00;97302.19;4986986;28;19921;-81
2024/02/11 08:42:11;;;;;;;;;;;;;;;4.35;100.00;97299.56;5004284;28;20008;-81
2024/02/11 08:44:37;;;;;;;;;;;;;;;4.37;100.00;97302.09;5004088;28;20004;-82
2024/02/11 08:47:02;;;;;;;;;;;;;;;4.37;100.00;97304.72;5004601;28;19944;-83
2024/02/11 08:49:29;;;;;;;;;;;;;;;4.39;100.00;97302.03;5002697;28;20651;-85
2024/02/11 08:51:54;;;;;;;;;;;;;;;4.37;100.00;97299.47;4985697;28;19921;-83
2024/02/11 08:54:20;;;;;;;;;;;;;;;4.33;100.00;97306.69;5003283;28;19924;-83
2024/02/11 08:56:47;;;;;;;;;;;;;;;4.35;100.00;97311.84;5004110;28;19933;-85
2024/02/11 08:59:13;;;;;;;;;;;;;;;4.41;100.00;97305.41;5003861;28;20365;-83
2024/02/11 09:01:38;;;;;;;;;;;;;;;4.36;100.00;97309.13;4994295;28;19941;-84
2024/02/11 09:04:04;;;;;;;;;;;;;;;4.41;100.00;97315.91;4986954;28;19987;-84
2024/02/11 09:06:30;;;;;;;;;;;;;;;4.33;100.00;97324.22;5002380;28;19941;-83
2024/02/11 09:08:56;;;;;;;;;;;;;;;4.38;100.00;97327.41;5003703;28;19937;-83
2024/02/11 09:11:21;;;;;;;;;;;;;;;4.44;100.00;97326.22;4986764;28;20375;-84
2024/02/11 09:13:46;;;;;;;;;;;;;;;4.42;100.00;97322.81;5003397;28;19922;-83
2024/02/11 09:16:12;;;;;;;;;;;;;;;4.48;100.00;97323.34;5003624;28;20097;-83
2024/02/11 09:18:37;;;;;;;;;;;;;;;4.50;100.00;97321.47;4986074;28;19980;-84
2024/02/11 09:21:02;;;;;;;;;;;;;;;4.43;100.00;97316.66;5002240;28;19917;-83
2024/02/11 09:23:28;;;;;;;;;;;;;;;4.43;100.00;97327.16;5003438;28;20281;-84
2024/02/11 09:25:53;;;;;;;;;;;;;;;4.36;100.00;97322.25;5003647;28;19922;-87
2024/02/11 09:28:20;;;;;;;;;;;;;;;4.43;100.00;97320.13;5003560;28;19922;-82
2024/02/11 09:30:46;;;;;;;;;;;;;;;4.42;100.00;97322.81;5002887;28;20425;-83
2024/02/11 09:33:11;;;;;;;;;;;;;;;4.42;100.00;97323.69;5002340;28;20012;-82
2024/02/11 09:35:36;;;;;;;;;;;;;;;4.47;100.00;97321.63;5002410;28;20016;-82
2024/02/11 09:38:01;;;;;;;;;;;;;;;4.47;100.00;97323.44;5002402;28;19917;-82
2024/02/11 09:40:27;;;;;;;;;;;;;;;4.52;100.00;97322.22;5003607;28;19945;-83
2024/02/11 09:42:55;;;;;;;;;;;;;;;4.53;100.00;97326.53;4985956;28;19922;-83
2024/02/11 09:45:22;;;;;;;;;;;;;;;4.58;100.00;97325.41;5002867;28;19917;-82
2024/02/11 09:47:49;;;;;;;;;;;;;;;4.60;100.00;97334.06;5002847;28;19918;-82
2024/02/11 09:50:15;;;;;;;;;;;;;;;4.59;100.00;97329.72;4992089;28;19918;-83
2024/02/11 09:52:40;;;;;;;;;;;;;;;4.52;100.00;97327.47;5002805;28;19922;-84
2024/02/11 09:55:07;;;;;;;;;;;;;;;4.54;100.00;97328.22;5003329;28;20435;-84
2024/02/11 09:57:33;;;;;;;;;;;;;;;4.54;100.00;97336.06;5002822;28;20020;-83
2024/02/11 09:59:59;;;;;;;;;;;;;;;4.60;100.00;97344.56;5002638;28;20008;-83
2024/02/11 10:02:28;;;;;;;;;;;;;;;4.59;100.00;97337.59;4993465;28;19969;-82
2024/02/11 10:04:57;;;;;;;;;;;;;;;4.63;100.00;97336.50;5001541;28;20288;-82
2024/02/11 10:07:27;;;;;;;;;;;;;;;4.63;100.00;97336.50;5002784;28;19921;-83
2024/02/11 13:58:40;;;;;;;;;;;;;;;5.23;100.00;97388.97;5496173;23;19991;-85
2024/02/11 14:01:05;;;;;;;;;;;;;;;5.21;100.00;97389.97;5011885;28;19972;-86
2024/02/11 14:03:32;;;;;;;;;;;;;;;5.28;100.00;97386.03;5011818;28;20323;-85
2024/02/11 14:05:57;;;;;;;;;;;;;;;5.32;100.00;97387.56;5012847;28;20384;-87
2024/02/11 14:08:22;;;;;;;;;;;;;;;5.30;100.00;97384.19;5012828;28;19959;-83
2024/02/11 14:10:47;;;;;;;;;;;;;;;5.36;100.00;97386.44;5012458;28;20487;-83
2024/02/11 14:13:14;;;;;;;;;;;;;;;5.30;100.00;97391.19;5011323;28;20025;-87
2024/02/11 14:15:40;;;;;;;;;;;;;;;5.29;100.00;97393.00;5002631;28;19921;-87
2024/02/11 14:18:08;;;;;;;;;;;;;;;5.30;100.00;97399.94;5001305;28;19964;-86
2024/02/11 14:20:34;;;;;;;;;;;;;;;5.28;100.00;97397.41;5012484;28;19918;-86
2024/02/11 14:23:01;;;;;;;;;;;;;;;5.32;100.00;97402.47;5012423;28;20288;-86
2024/02/11 14:25:26;;;;;;;;;;;;;;;5.33;100.00;97398.91;5001378;28;19984;-86
2024/02/11 14:27:51;;;;;;;;;;;;;;;5.35;100.00;97400.50;5000938;28;19987;-85
2024/02/11 14:30:17;;;;;;;;;;;;;;;5.42;100.00;97398.34;5012429;28;19964;-85
2024/02/11 14:32:43;;;;;;;;;;;;;;;5.37;100.00;97397.78;5012213;28;19928;-87
2024/02/11 14:35:10;;;;;;;;;;;;;;;5.38;100.00;97402.94;5012385;28;20019;-86
2024/02/11 14:37:37;;;;;;;;;;;;;;;5.44;100.00;97404.34;5012409;28;19965;-87
2024/02/11 14:40:03;;;;;;;;;;;;;;;5.49;100.00;97410.19;5012183;28;19918;-88
2024/02/11 14:42:28;;;;;;;;;;;;;;;5.45;100.00;97406.88;5010949;28;20253;-87
2024/02/11 14:44:59;;;;;;;;;;;;;;;5.51;100.00;97416.19;5011965;28;20254;-87
2024/02/11 14:47:26;;;;;;;;;;;;;;;5.50;100.00;97419.75;5012230;28;20286;-87
2024/02/11 14:49:52;;;;;;;;;;;;;;;5.41;100.00;97415.91;5012217;28;20016;-86
2024/02/11 14:52:18;;;;;;;;;;;;;;;5.44;100.00;97417.47;5002139;28;20012;-86
2024/02/11 14:54:44;;;;;;;;;;;;;;;5.43;100.00;97415.81;5012120;28;19929;-90
2024/02/11 14:57:09;;;;;;;;;;;;;;;5.44;100.00;97426.22;5001329;28;20004;-84
2024/02/11 14:59:35;;;;;;;;;;;;;;;5.48;100.00;97445.25;5011679;28;19925;-86
2024/02/11 15:02:00;;;;;;;;;;;;;;;5.50;100.00;97443.38;5012217;28;20102;-85
2024/02/11 15:04:27;;;;;;;;;;;;;;;5.51;100.00;97445.09;5012068;28;19921;-85
2024/02/11 15:06:57;;;;;;;;;;;;;;;5.54;100.00;97455.41;5002930;28;19928;-87
2024/02/11 15:09:23;;;;;;;;;;;;;;;5.45;100.00;97445.44;5011479;28;20316;-87
2024/02/11 15:11:49;;;;;;;;;;;;;;;5.49;100.00;97449.59;5011708;28;19918;-86
2024/02/11 15:14:14;;;;;;;;;;;;;;;5.44;100.00;97441.97;5010756;28;20288;-86
2024/02/11 15:16:40;;;;;;;;;;;;;;;5.48;100.00;97449.69;5001745;28;20351;-86
2024/02/11 15:19:06;;;;;;;;;;;;;;;5.48;100.00;97445.25;5011977;28;19925;-88
2024/02/11 15:21:32;;;;;;;;;;;;;;;5.43;100.00;97444.69;5010917;28;19941;-89
2024/02/11 15:23:57;;;;;;;;;;;;;;;5.46;100.00;97447.16;5011646;28;19971;-86
2024/02/11 15:26:25;;;;;;;;;;;;;;;5.46;100.00;97449.78;5001634;28;19936;-88
2024/02/11 15:28:50;;;;;;;;;;;;;;;5.48;100.00;97450.53;5010627;28;19959;-85
2024/02/11 15:31:16;;;;;;;;;;;;;;;5.46;100.00;97455.03;5015068;28;20327;-86
2024/02/11 15:33:41;;;;;;;;;;;;;;;5.47;100.00;97461.94;5014484;28;19964;-86
2024/02/11 15:36:08;;;;;;;;;;;;;;;5.48;100.00;97468.91;5005880;28;20266;-91
2024/02/11 15:38:34;;;;;;;;;;;;;;;5.54;100.00;97472.97;5014901;28;19922;-87
2024/02/11 15:40:59;;;;;;;;;;;;;;;5.49;100.00;97473.22;5015347;28;19920;-86
2024/02/11 15:43:25;;;;;;;;;;;;;;;5.51;100.00;97479.22;5014168;28;19922;-87
2024/02/11 15:45:50;;;;;;;;;;;;;;;5.56;100.00;97478.97;5004662;28;19924;-87
2024/02/11 15:48:17;;;;;;;;;;;;;;;5.49;100.00;97473.22;5005304;28;20454;-85
2024/02/11 15:50:42;;;;;;;;;;;;;;;5.51;100.00;97478.41;5014213;28;19921;-86
2024/02/11 15:53:11;;;;;;;;;;;;;;;5.46;100.00;97476.03;5014980;28;19963;-86
2024/02/11 15:55:37;;;;;;;;;;;;;;;5.49;100.00;97483.75;5014536;28;20420;-87
2024/02/11 15:58:04;;;;;;;;;;;;;;;5.52;100.00;97483.56;5013779;28;19918;-86
2024/02/11 16:00:32;;;;;;;;;;;;;;;5.51;100.00;97484.50;5014741;28;19926;-87
2024/02/11 16:02:59;;;;;;;;;;;;;;;5.52;100.00;97480.94;5004826;28;20268;-85
2024/02/11 16:05:25;;;;;;;;;;;;;;;5.49;100.00;97477.63;5014084;28;20296;-83
2024/02/11 16:07:51;;;;;;;;;;;;;;;5.52;100.00;97482.69;5004786;28;19924;-85
2024/02/11 16:10:16;;;;;;;;;;;;;;;5.52;100.00;97482.69;5014948;28;20461;-86
2024/02/11 16:12:43;;;;;;;;;;;;;;;5.47;100.00;97490.84;5013102;28;19924;-85
2024/02/11 16:15:08;;;;;;;;;;;;;;;5.50;100.00;97495.91;5014226;28;19926;-86
2024/02/11 16:17:37;;;;;;;;;;;;;;;5.49;100.00;97503.88;5014666;28;19917;-84
2024/02/11 16:20:05;;;;;;;;;;;;;;;5.49;100.00;97493.38;5014374;28;19937;-85
2024/02/11 16:22:31;;;;;;;;;;;;;;;5.46;100.00;97499.69;5014508;28;19925;-87
2024/02/11 16:24:56;;;;;;;;;;;;;;;5.42;100.00;97499.00;5004463;28;19917;-85
2024/02/11 16:27:21;;;;;;;;;;;;;;;5.36;100.00;97503.75;5002578;28;19925;-86
2024/02/11 16:29:47;;;;;;;;;;;;;;;5.43;100.00;97505.94;5014365;28;20384;-85
2024/02/11 16:32:12;;;;;;;;;;;;;;;5.46;100.00;97510.19;5004536;28;19957;-86
2024/02/11 16:34:37;;;;;;;;;;;;;;;5.41;100.00;97507.00;5014112;28;19921;-87
2024/02/11 16:37:03;;;;;;;;;;;;;;;5.39;100.00;97506.22;5013909;28;19928;-88
2024/02/11 16:39:30;;;;;;;;;;;;;;;5.38;100.00;97512.41;5014300;28;20433;-85
2024/02/11 16:41:58;;;;;;;;;;;;;;;5.43;100.00;97505.09;5013593;28;19921;-89
2024/02/11 16:44:24;;;;;;;;;;;;;;;5.41;100.00;97512.25;5012763;28;20377;-86
2024/02/11 16:46:49;;;;;;;;;;;;;;;5.38;100.00;97523.75;5013995;28;19929;-86
2024/02/11 16:49:15;;;;;;;;;;;;;;;5.36;100.00;97528.25;5003506;28;19918;-85
2024/02/11 16:51:41;;;;;;;;;;;;;;;5.37;100.00;97534.34;5013961;28;19921;-86
2024/02/11 16:54:06;;;;;;;;;;;;;;;5.38;100.00;97530.81;5014751;28;20361;-88
2024/02/11 16:56:32;;;;;;;;;;;;;;;5.40;100.00;97532.38;5013887;28;19925;-86
2024/02/11 16:58:57;;;;;;;;;;;;;;;5.43;100.00;97532.22;5011649;28;20357;-88
2024/02/11 17:01:23;;;;;;;;;;;;;;;5.41;100.00;97538.50;5013934;28;20396;-84
2024/02/11 17:03:48;;;;;;;;;;;;;;;5.45;100.00;97542.63;5012088;28;20368;-86
2024/02/11 17:06:16;;;;;;;;;;;;;;;5.39;100.00;97548.22;5013778;28;19936;-86
2024/02/11 17:08:41;;;;;;;;;;;;;;;5.38;100.00;97555.28;5013529;28;20288;-85
2024/02/11 17:11:10;;;;;;;;;;;;;;;5.41;100.00;97555.09;5013804;28;19932;-89
2024/02/11 17:13:35;;;;;;;;;;;;;;;5.44;100.00;97561.94;5002512;28;19955;-86
2024/02/11 17:16:04;;;;;;;;;;;;;;;5.33;100.00;97567.81;5013386;28;19973;-87
2024/02/11 17:18:29;;;;;;;;;;;;;;;5.42;100.00;97566.44;5012642;28;19917;-86
2024/02/11 17:20:55;;;;;;;;;;;;;;;5.38;100.00;97575.44;5013298;28;19964;-87
2024/02/11 17:23:23;;;;;;;;;;;;;;;5.41;100.00;97568.22;5013524;28;19917;-84
2024/02/11 17:25:51;;;;;;;;;;;;;;;5.40;100.00;97578.81;5003137;28;20013;-88
2024/02/11 17:28:16;;;;;;;;;;;;;;;5.37;100.00;97579.00;5012163;28;19928;-88
2024/02/11 17:30:42;;;;;;;;;;;;;;;5.35;100.00;97586.13;5013337;28;20011;-85
2024/02/11 17:33:09;;;;;;;;;;;;;;;5.32;100.00;97581.03;5013112;28;20015;-87
2024/02/11 17:35:34;;;;;;;;;;;;;;;5.31;100.00;97589.84;5013194;28;19965;-79
2024/02/11 17:38:00;;;;;;;;;;;;;;;5.36;100.00;97593.06;5013231;28;20391;-85
2024/02/11 17:40:27;;;;;;;;;;;;;;;5.33;100.00;97595.84;5013105;28;19926;-85
2024/02/11 17:42:53;;;;;;;;;;;;;;;5.32;100.00;97602.88;5011876;28;19956;-84
2024/02/11 17:45:18;;;;;;;;;;;;;;;5.38;100.00;97592.03;5002356;28;20351;-86
2024/02/11 17:47:44;;;;;;;;;;;;;;;5.39;100.00;97598.13;5012972;28;19922;-84
2024/02/11 17:50:13;;;;;;;;;;;;;;;5.33;100.00;97606.34;5012723;28;19917;-87
2024/02/11 17:52:40;;;;;;;;;;;;;;;5.35;100.00;97607.97;5012489;28;20387;-84
2024/02/11 17:55:08;;;;;;;;;;;;;;;5.31;100.00;97606.44;5012316;28;19974;-84
2024/02/11 17:57:34;;;;;;;;;;;;;;;5.40;100.00;97610.34;5000758;28;19921;-85
2024/02/11 18:00:00;;;;;;;;;;;;;;;5.31;100.00;97606.44;5001931;28;19929;-86
2024/02/11 18:02:27;;;;;;;;;;;;;;;5.29;100.00;97616.19;5012107;28;19930;-85
2024/02/11 18:04:56;;;;;;;;;;;;;;;5.31;100.00;97616.09;5000215;28;19928;-85
2024/02/11 18:07:23;;;;;;;;;;;;;;;5.28;100.00;97617.97;5003285;28;19921;-89
2024/02/11 18:09:49;;;;;;;;;;;;;;;5.37;100.00;97626.28;5002121;28;20329;-85
2024/02/11 18:12:16;;;;;;;;;;;;;;;5.33;100.00;97616.84;5011200;28;20067;-86
2024/02/11 18:14:42;;;;;;;;;;;;;;;5.38;100.00;97622.72;5012115;28;19964;-85
2024/02/11 18:17:08;;;;;;;;;;;;;;;5.32;100.00;97621.28;5011823;28;19928;-86
2024/02/11 18:19:34;;;;;;;;;;;;;;;5.31;100.00;97630.06;5011179;28;19921;-85
2024/02/11 18:21:59;;;;;;;;;;;;;;;5.22;100.00;97627.97;5001971;28;19921;-83
2024/02/11 18:24:24;;;;;;;;;;;;;;;5.30;100.00;97630.16;5012498;28;20060;-85
2024/02/11 18:26:49;;;;;;;;;;;;;;;5.30;100.00;97628.41;5011727;28;20011;-85
2024/02/11 18:29:16;;;;;;;;;;;;;;;5.25;100.00;97623.41;5000522;28;19921;-86
2024/02/11 18:31:42;;;;;;;;;;;;;;;5.34;100.00;97632.53;4999058;28;19940;-84
2024/02/11 18:34:10;;;;;;;;;;;;;;;5.27;100.00;97632.03;5012056;28;19924;-84
2024/02/11 18:36:36;;;;;;;;;;;;;;;5.29;100.00;97629.31;5012360;28;19969;-86
2024/02/11 18:39:02;;;;;;;;;;;;;;;5.34;100.00;97634.31;5012730;28;19924;-92
2024/02/11 18:41:27;;;;;;;;;;;;;;;5.31;100.00;97637.94;5002405;28;19922;-85
2024/02/11 18:43:52;;;;;;;;;;;;;;;5.31;100.00;97632.69;5010759;28;19918;-84
2024/02/11 18:46:20;;;;;;;;;;;;;;;5.33;100.00;97645.75;5001277;28;19925;-88
2024/02/11 18:48:45;;;;;;;;;;;;;;;5.34;100.00;97647.44;5001451;28;19922;-84
2024/02/11 18:51:10;;;;;;;;;;;;;;;5.36;100.00;97642.94;5011480;28;19931;-86
2024/02/11 18:53:35;;;;;;;;;;;;;;;5.35;100.00;97643.91;5007532;28;20004;-85
2024/02/11 18:56:01;;;;;;;;;;;;;;;5.35;100.00;97644.75;4998871;28;19939;-85
2024/02/11 18:58:27;;;;;;;;;;;;;;;5.30;100.00;97648.53;5010275;28;19966;-87
2024/02/11 19:00:54;;;;;;;;;;;;;;;5.36;100.00;97656.09;5012154;28;19963;-88
2024/02/11 19:03:19;;;;;;;;;;;;;;;5.29;100.00;97652.94;5008344;28;19925;-86
2024/02/11 19:05:45;;;;;;;;;;;;;;;5.31;100.00;97658.13;5003679;28;20347;-87
2024/02/11 19:08:13;;;;;;;;;;;;;;;5.30;100.00;97665.16;5015457;28;19921;-91
2024/02/11 19:10:40;;;;;;;;;;;;;;;5.25;100.00;97665.41;5015353;28;19917;-86
2024/02/11 19:13:07;;;;;;;;;;;;;;;5.30;100.00;97666.91;5014545;28;20439;-87
2024/02/11 19:15:32;;;;;;;;;;;;;;;5.32;100.00;97670.34;5015298;28;19979;-89
2024/02/11 19:17:58;;;;;;;;;;;;;;;5.35;100.00;97672.78;5003658;28;19957;-87
2024/02/11 19:20:24;;;;;;;;;;;;;;;5.38;100.00;97670.00;5015135;28;19926;-86
2024/02/11 19:22:49;;;;;;;;;;;;;;;5.31;100.00;97669.47;5015593;28;20422;-88
2024/02/11 19:25:14;;;;;;;;;;;;;;;5.37;100.00;97673.53;5015044;28;20428;-86
2024/02/11 19:27:40;;;;;;;;;;;;;;;5.28;100.00;97667.00;5014381;28;19937;-87
2024/02/11 19:30:06;;;;;;;;;;;;;;;5.25;100.00;97670.66;5015121;28;20286;-85
2024/02/11 19:32:33;;;;;;;;;;;;;;;5.34;100.00;97665.84;5004867;28;19925;-85
2024/02/11 19:35:02;;;;;;;;;;;;;;;5.33;100.00;97675.50;5005148;28;20404;-85
2024/02/11 19:37:27;;;;;;;;;;;;;;;5.35;100.00;97680.66;5014907;28;19951;-87
2024/02/11 19:39:53;;;;;;;;;;;;;;;5.36;100.00;97677.09;5015355;28;19917;-84
2024/02/11 19:42:19;;;;;;;;;;;;;;;5.36;100.00;97677.09;5013807;28;19920;-85
2024/02/11 19:44:44;;;;;;;;;;;;;;;5.32;100.00;97675.59;5005566;28;19976;-84
2024/02/11 19:47:11;;;;;;;;;;;;;;;5.41;100.00;97675.91;5014539;28;19921;-84
2024/02/11 19:49:38;;;;;;;;;;;;;;;5.33;100.00;97687.75;5014857;28;19924;-84
2024/02/11 19:52:06;;;;;;;;;;;;;;;5.28;100.00;97686.25;5004155;28;19925;-81
2024/02/11 19:54:33;;;;;;;;;;;;;;;5.36;100.00;97687.59;5014617;28;19918;-84
2024/02/11 19:56:58;;;;;;;;;;;;;;;5.37;100.00;97687.50;5014301;28;20297;-85
2024/02/11 19:59:25;;;;;;;;;;;;;;;5.36;100.00;97687.59;5002727;28;19931;-88
2024/02/11 20:01:51;;;;;;;;;;;;;;;5.34;100.00;97689.47;5002928;28;19921;-85
2024/02/11 20:04:16;;;;;;;;;;;;;;;5.42;100.00;97687.25;5014111;28;19962;-86
2024/02/11 20:06:44;;;;;;;;;;;;;;;5.28;100.00;97690.63;5003090;28;19918;-84
2024/02/11 20:09:12;;;;;;;;;;;;;;;5.27;100.00;97697.69;5004214;28;20300;-85
2024/02/11 20:11:42;;;;;;;;;;;;;;;5.32;100.00;97696.59;5004290;28;19929;-84
2024/02/11 20:14:08;;;;;;;;;;;;;;;5.31;100.00;97695.72;5003264;28;20012;-83
2024/02/11 20:16:33;;;;;;;;;;;;;;;5.28;100.00;97694.13;5013460;28;20008;-86
2024/02/11 20:18:59;;;;;;;;;;;;;;;5.27;100.00;97689.81;5014271;28;19924;-83
2024/02/11 20:21:24;;;;;;;;;;;;;;;5.30;100.00;97698.44;5014300;28;19928;-84
2024/02/11 20:23:50;;;;;;;;;;;;;;;5.25;100.00;97699.56;5014477;28;20379;-84
2024/02/11 20:26:15;;;;;;;;;;;;;;;5.34;100.00;97700.81;5003149;28;19929;-84
2024/02/11 20:28:41;;;;;;;;;;;;;;;5.28;100.00;97696.75;5012640;28;20452;-84
2024/02/11 20:31:07;;;;;;;;;;;;;;;5.32;100.00;97694.81;5014302;28;19918;-84
2024/02/11 20:33:33;;;;;;;;;;;;;;;5.33;100.00;97703.53;5014323;28;19925;-86
2024/02/11 20:35:58;;;;;;;;;;;;;;;5.35;100.00;97704.31;5014321;28;19921;-83
2024/02/11 20:38:24;;;;;;;;;;;;;;;5.36;100.00;97717.34;5013279;28;20001;-85
2024/02/11 20:40:49;;;;;;;;;;;;;;;5.39;100.00;97711.94;5014039;28;19918;-86
2024/02/11 20:43:15;;;;;;;;;;;;;;;5.36;100.00;97716.50;5002882;28;19924;-85
2024/02/11 20:45:41;;;;;;;;;;;;;;;5.38;100.00;97717.28;5003783;28;19917;-87
2024/02/11 20:48:09;;;;;;;;;;;;;;;5.39;100.00;97721.56;5013954;28;19921;-87
2024/02/11 20:50:35;;;;;;;;;;;;;;;5.35;100.00;97725.31;5014137;28;19917;-87
2024/02/11 20:53:00;;;;;;;;;;;;;;;5.38;100.00;97733.03;5013903;28;19969;-86
2024/02/11 20:55:28;;;;;;;;;;;;;;;5.41;100.00;97727.63;5013895;28;19933;-86
2024/02/11 20:57:55;;;;;;;;;;;;;;;5.41;100.00;97728.44;5002470;28;19917;-86
2024/02/11 21:00:24;;;;;;;;;;;;;;;5.41;100.00;97732.88;5003239;28;19957;-86
2024/02/11 21:02:50;;;;;;;;;;;;;;;5.41;100.00;97741.59;5013693;28;19921;-88
2024/02/11 21:05:19;;;;;;;;;;;;;;;5.40;100.00;97737.25;5012601;28;19995;-90
2024/02/11 21:07:44;;;;;;;;;;;;;;;5.39;100.00;97746.06;5002091;28;20009;-86
2024/02/11 21:10:11;;;;;;;;;;;;;;;5.40;100.00;97733.78;5012813;28;20012;-85
2024/02/11 21:12:36;;;;;;;;;;;;;;;5.40;100.00;97745.13;5010503;28;19917;-86
2024/02/11 21:15:03;;;;;;;;;;;;;;;5.48;100.00;97736.00;5012537;28;20418;-85
2024/02/11 21:17:35;;;;;;;;;;;;;;;5.48;100.00;97733.38;5012511;28;20342;-89
2024/02/11 21:20:02;;;;;;;;;;;;;;;5.42;100.00;97742.41;5012354;28;19921;-89
2024/02/11 21:22:27;;;;;;;;;;;;;;;5.42;100.00;97739.78;5001699;28;19917;-87
2024/02/11 21:24:52;;;;;;;;;;;;;;;5.42;100.00;97745.03;5012475;28;19918;-86
2024/02/11 21:27:20;;;;;;;;;;;;;;;5.46;100.00;97743.97;5011031;28;20269;-84
2024/02/11 21:29:45;;;;;;;;;;;;;;;5.42;100.00;97743.25;5012441;28;20369;-84
2024/02/11 21:32:12;;;;;;;;;;;;;;;5.41;100.00;97743.38;5012447;28;19972;-84
2024/02/11 21:34:37;;;;;;;;;;;;;;;5.41;100.00;97748.63;5012395;28;19917;-85
2024/02/11 21:37:03;;;;;;;;;;;;;;;5.45;100.00;97750.13;5001642;28;20357;-85
2024/02/11 21:39:28;;;;;;;;;;;;;;;5.41;100.00;97748.63;5012262;28;19932;-87
2024/02/11 21:41:55;;;;;;;;;;;;;;;5.41;100.00;97752.09;5012327;28;19922;-90
2024/02/11 21:44:22;;;;;;;;;;;;;;;5.49;100.00;97759.56;5002340;28;20449;-87
2024/02/11 21:46:48;;;;;;;;;;;;;;;5.49;100.00;97759.56;5012009;28;19918;-88
2024/02/11 21:49:14;;;;;;;;;;;;;;;5.44;100.00;97759.81;5001927;28;19918;-86
2024/02/11 21:51:40;;;;;;;;;;;;;;;5.43;100.00;97758.09;5012255;28;19917;-88
2024/02/11 21:54:05;;;;;;;;;;;;;;;5.48;100.00;97757.84;5011986;28;20016;-86
2024/02/11 21:56:31;;;;;;;;;;;;;;;5.46;100.00;97767.59;5001704;28;19918;-87
2024/02/11 21:58:56;;;;;;;;;;;;;;;5.43;100.00;97767.75;5000194;28;19929;-87
2024/02/11 22:01:24;;;;;;;;;;;;;;;5.44;100.00;97765.06;5011921;28;19956;-87
2024/02/11 22:03:49;;;;;;;;;;;;;;;5.44;100.00;97775.56;5010774;28;19935;-86
2024/02/11 22:06:14;;;;;;;;;;;;;;;5.49;100.00;97777.94;5011720;28;20361;-86
2024/02/11 22:08:40;;;;;;;;;;;;;;;5.49;100.00;97783.19;5001955;28;19926;-87
2024/02/11 22:11:07;;;;;;;;;;;;;;;5.50;100.00;97784.88;5001628;28;19922;-88
2024/02/11 22:13:34;;;;;;;;;;;;;;;5.44;100.00;97785.19;5009903;28;19917;-83
2024/02/11 22:16:00;;;;;;;;;;;;;;;5.49;100.00;97791.09;5011599;28;19918;-85
2024/02/11 22:18:25;;;;;;;;;;;;;;;5.45;100.00;97797.41;5011733;28;19921;-84
2024/02/11 22:20:51;;;;;;;;;;;;;;;5.42;100.00;97782.66;5011876;28;19918;-90
2024/02/11 22:23:23;;;;;;;;;;;;;;;5.52;100.00;97798.81;4985777;28;20287;-89
2024/02/11 22:25:48;;;;;;;;;;;;;;;5.52;100.00;97790.91;5011807;28;19964;-88
2024/02/11 22:28:14;;;;;;;;;;;;;;;5.41;100.00;97796.75;5010555;28;19952;-90
2024/02/11 22:30:40;;;;;;;;;;;;;;;5.47;100.00;97811.31;5011704;28;19925;-88
2024/02/11 22:33:05;;;;;;;;;;;;;;;5.48;100.00;97809.56;5011726;28;19921;-87
2024/02/11 22:35:30;;;;;;;;;;;;;;;5.52;100.00;97814.56;5011896;28;19924;-83
2024/02/11 22:37:56;;;;;;;;;;;;;;;5.49;100.00;97809.47;5011807;28;19917;-90
2024/02/11 22:40:21;;;;;;;;;;;;;;;5.45;100.00;97815.81;5011057;28;20004;-89
2024/02/11 22:42:46;;;;;;;;;;;;;;;5.44;100.00;97817.59;5010406;28;19932;-89
2024/02/11 22:45:13;;;;;;;;;;;;;;;5.39;100.00;97824.00;5011747;28;19924;-90
2024/02/11 22:47:38;;;;;;;;;;;;;;;5.49;100.00;97819.97;5011314;28;19921;-88
2024/02/11 22:50:03;;;;;;;;;;;;;;;5.45;100.00;97824.53;5010601;28;19925;-89
2024/02/11 22:52:29;;;;;;;;;;;;;;;5.52;100.00;97832.09;5001808;28;19922;-88
2024/02/11 22:54:56;;;;;;;;;;;;;;;5.54;100.00;97827.63;5011508;28;20391;-87
2024/02/11 22:57:22;;;;;;;;;;;;;;;5.54;100.00;97836.34;5010114;28;19933;-86
2024/02/11 22:59:47;;;;;;;;;;;;;;;5.47;100.00;97848.09;5011577;28;19926;-88
2024/02/11 23:02:12;;;;;;;;;;;;;;;5.56;100.00;97837.09;5011615;28;20062;-89
2024/02/11 23:04:37;;;;;;;;;;;;;;;5.54;100.00;97846.00;5011202;28;19983;-86
2024/02/11 23:07:04;;;;;;;;;;;;;;;5.57;100.00;97844.06;5001331;28;19933;-86
2024/02/11 23:09:29;;;;;;;;;;;;;;;5.53;100.00;97854.81;5001380;28;19924;-91
2024/02/11 23:11:58;;;;;;;;;;;;;;;5.54;100.00;97859.13;5011517;28;19917;-90
2024/02/11 23:14:24;;;;;;;;;;;;;;;5.52;100.00;97846.09;4999693;28;20277;-88
2024/02/11 23:16:50;;;;;;;;;;;;;;;5.57;100.00;97865.06;5000531;28;19944;-86
2024/02/11 23:19:16;;;;;;;;;;;;;;;5.50;100.00;97868.94;5011568;28;20283;-91
2024/02/11 23:21:42;;;;;;;;;;;;;;;5.56;100.00;97873.03;5001292;28;20292;-87
2024/02/11 23:24:08;;;;;;;;;;;;;;;5.43;100.00;97870.22;5011261;28;19918;-87
2024/02/11 23:26:35;;;;;;;;;;;;;;;5.50;100.00;97868.09;5001874;28;19992;-86
2024/02/11 23:29:00;;;;;;;;;;;;;;;5.53;100.00;97881.91;5010015;28;19968;-91
2024/02/11 23:31:26;;;;;;;;;;;;;;;5.48;100.00;97881.31;5011121;28;20284;-86
2024/02/11 23:33:53;;;;;;;;;;;;;;;5.49;100.00;97883.03;5010868;28;19921;-84
2024/02/11 23:36:18;;;;;;;;;;;;;;;5.52;100.00;97882.00;5000120;28;19917;-86
2024/02/11 23:38:46;;;;;;;;;;;;;;;5.51;100.00;97886.41;5000997;28;20380;-89
2024/02/11 23:41:12;;;;;;;;;;;;;;;5.55;100.00;97887.97;5001029;28;20391;-86
2024/02/11 23:43:37;;;;;;;;;;;;;;;5.45;100.00;97889.34;5009738;28;20353;-86
2024/02/11 23:46:03;;;;;;;;;;;;;;;5.46;100.00;97897.16;5010672;28;19917;-87
2024/02/11 23:48:28;;;;;;;;;;;;;;;5.50;100.00;97904.88;5000807;28;19917;-85
2024/02/11 23:50:56;;;;;;;;;;;;;;;5.48;100.00;97906.75;5010884;28;20416;-86
2024/02/11 23:53:25;;;;;;;;;;;;;;;5.47;100.00;97903.25;5003564;28;20389;-84
2024/02/11 23:55:50;;;;;;;;;;;;;;;5.51;100.00;97912.69;5013650;28;20399;-86
2024/02/11 23:58:18;;;;;;;;;;;;;;;5.51;100.00;97919.72;5012855;28;19969;-85
